Time;durP1;ratioP1;P1;durP2;ratioP2;P2;SDS_P1;SDS_P2;PMS_P1;PMS_P2;Temp;Humidity;BMP_temperature;BMP_pressure;BME280_temperature;BME280_humidity;BME280_pressure;Samples;Min_cycle;Max_cycle;Signal;HPM_P1;HPM_P2
2022/02/09 00:02:01;;;;;;;;;;;21.70;30.90;;;;;;466409;255;2006;-39
2022/02/09 00:03:58;;;;;;;;;;;21.70;30.90;;;;;;465749;255;1767;-39
2022/02/09 00:05:59;;;;;;;;;;;21.70;30.90;;;;;;466065;255;2107;-39
2022/02/09 00:08:02;;;;;;;;;;;21.70;31.00;;;;;;466169;255;2241;-39
2022/02/09 00:10:01;;;;;;;;;;;21.70;30.90;;;;;;466451;255;2139;-39
2022/02/09 00:12:07;;;;;;;;;;;21.70;31.00;;;;;;466447;255;1334;-38
2022/02/09 00:14:15;;;;;;;;;;;21.70;30.90;;;;;;466284;255;2299;-39
2022/02/09 00:16:18;;;;;;;;;;;21.70;31.00;;;;;;466244;255;2126;-39
2022/02/09 00:18:18;;;;;;;;;;;21.70;31.00;;;;;;465863;255;2239;-39
2022/02/09 00:20:51;;;;;;;;;;;21.70;30.90;;;;;;465981;255;2400;-39
2022/02/09 00:22:45;;;;;;;;;;;21.70;31.00;;;;;;465155;255;2033;-39
2022/02/09 00:25:00;;;;;;;;;;;21.70;31.00;;;;;;465979;255;1780;-39
2022/02/09 00:27:17;;;;;;;;;;;21.60;31.00;;;;;;466104;255;1937;-39
2022/02/09 00:29:28;;;;;;;;;;;21.60;30.90;;;;;;465473;255;1533;-39
2022/02/09 00:34:09;;;;;;;;;;;21.60;31.00;;;;;;455966;255;1163;-39
2022/02/09 00:36:17;;;;;;;;;;;21.70;31.00;;;;;;465519;255;2264;-39
2022/02/09 00:38:44;;;;;;;;;;;21.70;30.90;;;;;;465877;256;2221;-39
2022/02/09 00:41:13;;;;;;;;;;;21.70;31.00;;;;;;465960;255;2280;-39
2022/02/09 00:43:28;;;;;;;;;;;21.70;30.90;;;;;;465431;255;2210;-39
2022/02/09 00:58:46;;;;;;;;;;;21.70;30.90;;;;;;465786;255;2467;-39
2022/02/09 00:59:23;;;;;;;;;;;21.70;31.00;;;;;;466495;255;1836;-39
2022/02/09 01:38:55;;;;;;;;;;;21.60;31.10;;;;;;466474;255;1263;-39
2022/02/09 01:44:17;;;;;;;;;;;21.70;31.10;;;;;;466521;255;1207;-39
2022/02/09 01:57:19;;;;;;;;;;;21.70;31.00;;;;;;466805;255;1659;-39
2022/02/09 01:59:21;;;;;;;;;;;21.70;31.00;;;;;;466818;255;1142;-39
2022/02/09 02:01:22;;;;;;;;;;;21.60;31.00;;;;;;466528;251;1394;-39
2022/02/09 02:03:23;;;;;;;;;;;21.70;31.00;;;;;;466817;255;1227;-39
2022/02/09 02:05:25;;;;;;;;;;;21.70;31.10;;;;;;466460;255;1260;-39
2022/02/09 02:07:34;;;;;;;;;;;21.70;31.00;;;;;;466509;255;1217;-39
2022/02/09 02:09:32;;;;;;;;;;;21.70;31.10;;;;;;465997;255;2283;-39
2022/02/09 02:11:33;;;;;;;;;;;21.70;31.10;;;;;;466548;255;2465;-39
2022/02/09 02:13:52;;;;;;;;;;;21.60;31.10;;;;;;466287;255;2197;-39
2022/02/09 02:16:12;;;;;;;;;;;21.70;31.10;;;;;;465933;255;2355;-39
2022/02/09 02:17:57;;;;;;;;;;;21.70;31.10;;;;;;465427;255;2178;-39
2022/02/09 02:20:02;;;;;;;;;;;21.70;31.10;;;;;;466893;255;2201;-39
2022/02/09 02:22:07;;;;;;;;;;;21.70;31.10;;;;;;466116;255;2434;-39
2022/02/09 02:24:25;;;;;;;;;;;21.70;31.10;;;;;;465938;255;2305;-39
2022/02/09 02:26:23;;;;;;;;;;;21.60;31.10;;;;;;465887;251;1534;-39
2022/02/09 02:28:37;;;;;;;;;;;21.70;31.20;;;;;;465942;255;1359;-39
2022/02/09 02:33:12;;;;;;;;;;;21.60;31.10;;;;;;466233;255;1610;-39
2022/02/09 02:35:53;;;;;;;;;;;21.60;31.10;;;;;;465962;255;2046;-39
2022/02/09 02:38:13;;;;;;;;;;;21.70;31.10;;;;;;465372;255;2134;-39
2022/02/09 02:43:29;;;;;;;;;;;21.70;31.10;;;;;;460467;255;1536;-39
2022/02/09 02:47:41;;;;;;;;;;;21.70;31.20;;;;;;466475;255;1508;-39
2022/02/09 02:57:03;;;;;;;;;;;21.70;31.20;;;;;;466429;255;2158;-39
2022/02/09 02:59:18;;;;;;;;;;;21.60;31.20;;;;;;466149;255;1834;-39
2022/02/09 03:08:28;;;;;;;;;;;21.60;31.20;;;;;;466424;255;1296;-39
2022/02/09 03:10:43;;;;;;;;;;;21.60;31.20;;;;;;465354;255;2373;-39
2022/02/09 03:12:31;;;;;;;;;;;21.60;31.20;;;;;;465126;256;1225;-39
2022/02/09 03:14:27;;;;;;;;;;;21.60;31.20;;;;;;465810;255;1451;-39
2022/02/09 03:16:31;;;;;;;;;;;21.70;31.20;;;;;;466071;251;2255;-39
2022/02/09 03:21:03;;;;;;;;;;;21.70;31.10;;;;;;460511;255;1484;-39
2022/02/09 03:23:04;;;;;;;;;;;21.70;31.20;;;;;;466222;255;1687;-39
2022/02/09 03:30:48;;;;;;;;;;;21.70;31.20;;;;;;466457;255;1296;-39
2022/02/09 03:44:04;;;;;;;;;;;21.70;31.20;;;;;;466786;255;1044;-39
2022/02/09 03:51:05;;;;;;;;;;;21.70;31.20;;;;;;460651;255;1284;-39
2022/02/09 03:53:10;;;;;;;;;;;21.70;31.10;;;;;;465416;255;2288;-39
2022/02/09 03:55:14;;;;;;;;;;;21.70;31.20;;;;;;466444;255;2106;-39
2022/02/09 03:57:22;;;;;;;;;;;21.70;31.20;;;;;;466236;255;2271;-39
2022/02/09 03:59:13;;;;;;;;;;;21.70;31.20;;;;;;465860;255;2386;-39
2022/02/09 04:01:15;;;;;;;;;;;21.70;31.20;;;;;;466761;255;2079;-39
2022/02/09 04:03:18;;;;;;;;;;;21.70;31.20;;;;;;466524;255;1352;-39
2022/02/09 04:05:17;;;;;;;;;;;21.70;31.10;;;;;;466291;255;2362;-39
2022/02/09 04:07:17;;;;;;;;;;;21.70;31.20;;;;;;466351;255;2244;-39
2022/02/09 04:09:22;;;;;;;;;;;21.70;31.20;;;;;;466742;255;1074;-39
2022/02/09 04:11:26;;;;;;;;;;;21.70;31.20;;;;;;466429;255;1528;-39
2022/02/09 04:13:30;;;;;;;;;;;21.70;31.10;;;;;;466329;255;2077;-39
2022/02/09 04:15:30;;;;;;;;;;;21.60;31.20;;;;;;466212;255;2195;-39
2022/02/09 04:17:32;;;;;;;;;;;21.60;31.20;;;;;;466117;255;2209;-39
2022/02/09 04:19:35;;;;;;;;;;;21.60;31.20;;;;;;466139;255;1891;-39
2022/02/09 04:37:59;;;;;;;;;;;21.60;31.30;;;;;;466390;256;2114;-38
2022/02/09 04:39:56;;;;;;;;;;;21.60;31.30;;;;;;465889;255;1289;-39
2022/02/09 04:42:19;;;;;;;;;;;21.60;31.30;;;;;;466318;255;2439;-39
2022/02/09 04:49:22;;;;;;;;;;;21.70;31.30;;;;;;466737;255;1211;-39
2022/02/09 04:51:19;;;;;;;;;;;21.60;31.30;;;;;;465946;255;2142;-39
2022/02/09 04:53:24;;;;;;;;;;;21.70;31.30;;;;;;466288;255;2373;-39
2022/02/09 04:55:37;;;;;;;;;;;21.70;31.20;;;;;;466188;255;2303;-39
2022/02/09 04:57:35;;;;;;;;;;;21.70;31.20;;;;;;465883;255;2279;-39
2022/02/09 04:59:41;;;;;;;;;;;21.70;31.30;;;;;;466305;255;2441;-39
2022/02/09 05:02:04;;;;;;;;;;;21.60;31.30;;;;;;465979;255;1912;-39
2022/02/09 05:18:20;;;;;;;;;;;21.70;31.30;;;;;;465230;255;2131;-39
2022/02/09 05:21:14;;;;;;;;;;;21.70;31.30;;;;;;464458;256;2195;-39
2022/02/09 05:23:04;;;;;;;;;;;21.70;31.30;;;;;;463926;256;1926;-39
2022/02/09 05:25:14;;;;;;;;;;;21.60;31.30;;;;;;464993;256;2071;-39
2022/02/09 05:27:15;;;;;;;;;;;21.60;31.30;;;;;;464656;256;1579;-39
2022/02/09 05:29:05;;;;;;;;;;;21.60;31.40;;;;;;464840;256;2468;-39
2022/02/09 05:31:08;;;;;;;;;;;21.60;31.30;;;;;;465538;256;1275;-39
2022/02/09 05:33:08;;;;;;;;;;;21.70;31.40;;;;;;465182;256;1797;-39
2022/02/09 05:35:09;;;;;;;;;;;21.70;31.30;;;;;;465304;256;1104;-39
2022/02/09 05:37:10;;;;;;;;;;;21.60;31.30;;;;;;465175;256;2222;-39
2022/02/09 05:39:12;;;;;;;;;;;21.60;31.30;;;;;;465459;256;1281;-39
2022/02/09 05:41:13;;;;;;;;;;;21.60;31.30;;;;;;465137;256;1389;-39
2022/02/09 05:43:14;;;;;;;;;;;21.60;31.40;;;;;;465206;256;1123;-39
2022/02/09 05:45:17;;;;;;;;;;;21.60;31.30;;;;;;465289;256;1148;-39
2022/02/09 05:49:45;;;;;;;;;;;21.70;31.40;;;;;;464320;256;1251;-39
2022/02/09 05:51:50;;;;;;;;;;;21.70;31.30;;;;;;465014;253;2270;-39
2022/02/09 05:54:02;;;;;;;;;;;21.60;31.40;;;;;;464892;256;2358;-39
2022/02/09 05:56:07;;;;;;;;;;;21.60;31.40;;;;;;464728;256;2012;-39
2022/02/09 05:58:07;;;;;;;;;;;21.60;31.40;;;;;;464833;256;2385;-39
2022/02/09 06:00:02;;;;;;;;;;;21.60;31.30;;;;;;464916;256;2322;-39
2022/02/09 06:02:03;;;;;;;;;;;21.70;31.30;;;;;;465079;253;1129;-39
2022/02/09 06:04:04;;;;;;;;;;;21.70;31.40;;;;;;465190;256;1250;-39
2022/02/09 06:06:06;;;;;;;;;;;21.70;31.30;;;;;;465116;256;1079;-39
2022/02/09 06:08:07;;;;;;;;;;;21.60;31.30;;;;;;465368;256;1505;-39
2022/02/09 06:10:16;;;;;;;;;;;21.60;31.40;;;;;;466433;255;1144;-39
2022/02/09 06:12:15;;;;;;;;;;;21.70;31.40;;;;;;465874;255;2599;-39
2022/02/09 06:14:25;;;;;;;;;;;21.60;31.40;;;;;;466196;255;2409;-39
2022/02/09 06:21:12;;;;;;;;;;;21.60;31.40;;;;;;451070;255;1362;-39
2022/02/09 06:23:13;;;;;;;;;;;21.70;31.40;;;;;;466068;255;2087;-39
2022/02/09 06:25:14;;;;;;;;;;;21.70;31.40;;;;;;466188;255;1173;-39
2022/02/09 06:27:15;;;;;;;;;;;21.70;31.40;;;;;;466412;255;1209;-39
2022/02/09 06:29:17;;;;;;;;;;;21.60;31.40;;;;;;466237;255;1065;-38
2022/02/09 06:31:18;;;;;;;;;;;21.60;31.40;;;;;;466239;255;1232;-39
2022/02/09 06:33:19;;;;;;;;;;;21.60;31.40;;;;;;466246;255;1336;-39
2022/02/09 06:35:21;;;;;;;;;;;21.70;31.40;;;;;;466291;255;1084;-39
2022/02/09 06:37:25;;;;;;;;;;;21.70;31.40;;;;;;466166;255;2200;-38
2022/02/09 06:39:25;;;;;;;;;;;21.70;31.40;;;;;;466041;255;2180;-39
2022/02/09 06:41:25;;;;;;;;;;;21.70;31.40;;;;;;466050;255;1694;-39
2022/02/09 06:43:29;;;;;;;;;;;21.70;31.40;;;;;;466162;255;1107;-39
2022/02/09 06:45:32;;;;;;;;;;;21.70;31.40;;;;;;466034;255;2055;-38
2022/02/09 06:47:29;;;;;;;;;;;21.70;31.40;;;;;;465895;255;2153;-39
2022/02/09 06:49:31;;;;;;;;;;;21.70;31.50;;;;;;466177;255;1068;-39
2022/02/09 06:51:35;;;;;;;;;;;21.70;31.40;;;;;;466124;255;1546;-39
2022/02/09 06:53:40;;;;;;;;;;;21.60;31.40;;;;;;466195;255;2332;-39
2022/02/09 06:55:43;;;;;;;;;;;21.70;31.50;;;;;;465908;255;2194;-39
2022/02/09 06:58:00;;;;;;;;;;;21.70;31.50;;;;;;465713;255;2151;-39
2022/02/09 06:59:47;;;;;;;;;;;21.60;31.50;;;;;;465294;255;2178;-39
2022/02/09 07:01:48;;;;;;;;;;;21.70;31.40;;;;;;466186;255;1201;-39
2022/02/09 07:03:49;;;;;;;;;;;21.70;31.40;;;;;;466128;255;1238;-39
2022/02/09 07:05:51;;;;;;;;;;;21.70;31.40;;;;;;466156;255;1240;-39
2022/02/09 07:07:52;;;;;;;;;;;21.70;31.40;;;;;;466087;255;1322;-39
2022/02/09 07:09:53;;;;;;;;;;;21.70;31.50;;;;;;466188;255;1178;-39
2022/02/09 07:11:55;;;;;;;;;;;21.70;31.40;;;;;;465890;255;1507;-39
2022/02/09 07:13:56;;;;;;;;;;;21.60;31.40;;;;;;466026;255;1232;-38
2022/02/09 07:16:04;;;;;;;;;;;21.60;31.40;;;;;;465937;251;1340;-39
2022/02/09 07:18:05;;;;;;;;;;;21.60;31.40;;;;;;465658;255;2201;-38
2022/02/09 07:20:08;;;;;;;;;;;21.70;31.40;;;;;;465570;255;2296;-39
2022/02/09 07:22:06;;;;;;;;;;;21.70;31.40;;;;;;465646;255;2279;-39
2022/02/09 07:24:08;;;;;;;;;;;21.70;31.40;;;;;;465971;255;2414;-39
2022/02/09 07:26:12;;;;;;;;;;;21.60;31.40;;;;;;466083;255;1352;-39
2022/02/09 07:28:11;;;;;;;;;;;21.70;31.40;;;;;;465959;255;2278;-39
2022/02/09 07:30:12;;;;;;;;;;;21.70;31.40;;;;;;466135;255;1086;-39
2022/02/09 07:32:13;;;;;;;;;;;21.70;31.30;;;;;;465930;255;1138;-39
2022/02/09 07:34:15;;;;;;;;;;;21.70;31.30;;;;;;465926;255;1168;-39
2022/02/09 07:36:16;;;;;;;;;;;21.70;31.20;;;;;;465892;255;1148;-39
2022/02/09 07:38:18;;;;;;;;;;;21.70;31.20;;;;;;465848;255;2118;-39
2022/02/09 07:40:19;;;;;;;;;;;21.70;31.20;;;;;;465926;255;1146;-39
2022/02/09 07:42:25;;;;;;;;;;;21.70;31.20;;;;;;465983;255;1233;-39
2022/02/09 07:44:44;;;;;;;;;;;21.70;31.20;;;;;;465669;255;2234;-39
2022/02/09 07:46:43;;;;;;;;;;;21.70;31.20;;;;;;465165;255;2153;-39
2022/02/09 07:48:51;;;;;;;;;;;21.80;31.20;;;;;;465586;255;1397;-39
2022/02/09 07:50:43;;;;;;;;;;;21.70;31.10;;;;;;465293;255;2024;-39
2022/02/09 07:52:52;;;;;;;;;;;21.70;31.20;;;;;;465830;255;1749;-39
2022/02/09 07:54:50;;;;;;;;;;;21.70;31.20;;;;;;465693;255;2416;-39
2022/02/09 07:56:52;;;;;;;;;;;21.70;31.30;;;;;;466130;255;1163;-38
2022/02/09 07:58:53;;;;;;;;;;;21.70;31.20;;;;;;466539;255;2209;-38
2022/02/09 08:00:54;;;;;;;;;;;21.70;31.20;;;;;;465877;255;1186;-38
2022/02/09 08:02:57;;;;;;;;;;;21.70;31.10;;;;;;465951;255;1090;-38
2022/02/09 08:04:57;;;;;;;;;;;21.70;31.10;;;;;;465883;255;1287;-38
2022/02/09 08:06:58;;;;;;;;;;;21.70;31.10;;;;;;465886;255;1181;-38
2022/02/09 08:09:03;;;;;;;;;;;21.80;31.00;;;;;;465816;255;1248;-38
2022/02/09 08:11:13;;;;;;;;;;;21.80;31.00;;;;;;465590;255;1445;-38
2022/02/09 08:20:34;;;;;;;;;;;21.80;31.00;;;;;;465839;255;1253;-38
2022/02/09 08:27:24;;;;;;;;;;;21.90;30.90;;;;;;464929;255;2104;-38
2022/02/09 08:29:27;;;;;;;;;;;21.80;30.80;;;;;;465573;255;2213;-38
2022/02/09 08:33:46;;;;;;;;;;;21.90;30.80;;;;;;465641;255;1170;-38
2022/02/09 08:35:54;;;;;;;;;;;21.90;30.00;;;;;;507938;234;1218;-39
2022/02/09 08:37:57;;;;;;;;;;;21.90;30.80;;;;;;499675;238;2148;-38
2022/02/09 08:39:56;;;;;;;;;;;21.90;30.80;;;;;;499499;238;2273;-38
2022/02/09 08:41:56;;;;;;;;;;;21.90;30.80;;;;;;499583;238;2131;-38
2022/02/09 08:43:58;;;;;;;;;;;21.90;30.70;;;;;;499674;237;1288;-38
2022/02/09 08:45:59;;;;;;;;;;;21.90;30.70;;;;;;499728;237;1159;-39
2022/02/09 08:48:00;;;;;;;;;;;21.90;30.60;;;;;;500045;237;1161;-39
2022/02/09 08:50:01;;;;;;;;;;;21.90;30.60;;;;;;499791;237;1351;-39
2022/02/09 08:52:03;;;;;;;;;;;21.90;30.60;;;;;;499677;237;1361;-38
2022/02/09 08:54:04;;;;;;;;;;;22.00;30.60;;;;;;499850;237;2387;-38
2022/02/09 08:56:07;;;;;;;;;;;22.00;30.50;;;;;;499751;237;1194;-38
2022/02/09 08:58:07;;;;;;;;;;;22.10;30.40;;;;;;499511;237;2104;-38
2022/02/09 09:00:15;;;;;;;;;;;22.20;30.30;;;;;;499739;237;1249;-38
2022/02/09 09:02:12;;;;;;;;;;;22.20;30.10;;;;;;499211;238;2115;-39
2022/02/09 09:04:19;;;;;;;;;;;22.20;30.10;;;;;;499707;238;1896;-39
2022/02/09 09:06:20;;;;;;;;;;;22.30;30.00;;;;;;499294;238;2218;-39
2022/02/09 09:08:36;;;;;;;;;;;22.30;30.00;;;;;;499873;238;2166;-39
2022/02/09 09:10:31;;;;;;;;;;;22.30;30.00;;;;;;498481;238;2192;-38
2022/02/09 09:15:32;;;;;;;;;;;22.30;30.10;;;;;;499548;238;2177;-39
2022/02/09 09:31:31;;;;;;;;;;;21.80;30.70;;;;;;499471;238;1275;-38
2022/02/09 09:59:18;;;;;;;;;;;21.70;30.80;;;;;;499480;238;1085;-38
2022/02/09 10:01:29;;;;;;;;;;;21.70;30.80;;;;;;497809;238;1280;-38
2022/02/09 10:03:47;;;;;;;;;;;21.70;30.70;;;;;;499075;238;1330;-39
2022/02/09 10:05:47;;;;;;;;;;;21.80;30.60;;;;;;498554;238;2062;-39
2022/02/09 10:31:11;;;;;;;;;;;21.80;30.60;;;;;;499586;238;1300;-39
2022/02/09 10:33:05;;;;;;;;;;;21.80;30.60;;;;;;498753;238;1644;-39
2022/02/09 10:35:05;;;;;;;;;;;21.90;30.60;;;;;;499849;238;2245;-38
2022/02/09 10:37:07;;;;;;;;;;;21.90;30.50;;;;;;497958;237;1186;-39
2022/02/09 10:39:10;;;;;;;;;;;21.90;30.60;;;;;;497439;239;1128;-38
2022/02/09 10:41:10;;;;;;;;;;;21.80;30.60;;;;;;497610;239;2190;-39
2022/02/09 10:43:11;;;;;;;;;;;21.80;30.50;;;;;;497685;239;1220;-38
2022/02/09 10:45:29;;;;;;;;;;;21.80;30.60;;;;;;497525;239;1234;-38
2022/02/09 10:47:19;;;;;;;;;;;21.80;30.60;;;;;;496478;239;2106;-38
2022/02/09 10:49:22;;;;;;;;;;;21.80;30.60;;;;;;497315;239;1306;-38
2022/02/09 10:51:26;;;;;;;;;;;21.90;30.60;;;;;;497369;239;2324;-38
2022/02/09 10:53:25;;;;;;;;;;;21.80;30.60;;;;;;497333;239;2038;-38
2022/02/09 10:55:25;;;;;;;;;;;21.80;30.60;;;;;;497355;239;2105;-39
2022/02/09 10:57:27;;;;;;;;;;;21.80;30.50;;;;;;497687;239;1234;-38
2022/02/09 10:59:28;;;;;;;;;;;21.90;30.60;;;;;;498006;239;1077;-38
2022/02/09 11:01:29;;;;;;;;;;;21.90;30.60;;;;;;497674;237;1354;-39
2022/02/09 11:03:31;;;;;;;;;;;21.90;30.50;;;;;;497962;239;1104;-38
2022/02/09 11:05:32;;;;;;;;;;;21.80;30.50;;;;;;497591;239;1088;-38
2022/02/09 11:07:33;;;;;;;;;;;21.90;30.60;;;;;;497839;239;1634;-39
2022/02/09 11:09:35;;;;;;;;;;;21.90;30.50;;;;;;498514;239;861;-39
2022/02/09 11:11:38;;;;;;;;;;;21.80;30.50;;;;;;498304;238;2093;-38
2022/02/09 11:13:38;;;;;;;;;;;21.90;30.50;;;;;;497469;239;1996;-38
2022/02/09 11:15:40;;;;;;;;;;;21.90;30.50;;;;;;497563;239;2194;-39
2022/02/09 11:17:46;;;;;;;;;;;21.90;30.40;;;;;;497352;239;1332;-38
2022/02/09 11:19:45;;;;;;;;;;;21.90;30.50;;;;;;497150;239;2398;-38
2022/02/09 11:21:49;;;;;;;;;;;21.90;30.50;;;;;;497215;239;2020;-38
2022/02/09 11:23:46;;;;;;;;;;;21.90;30.50;;;;;;497152;239;1441;-39
2022/02/09 11:25:54;;;;;;;;;;;21.90;30.50;;;;;;497535;239;1319;-38
2022/02/09 11:27:52;;;;;;;;;;;21.80;30.40;;;;;;497028;239;2029;-38
2022/02/09 11:29:57;;;;;;;;;;;21.90;30.40;;;;;;497296;239;2181;-38
2022/02/09 11:31:52;;;;;;;;;;;21.90;30.40;;;;;;496871;239;2118;-38
2022/02/09 11:33:53;;;;;;;;;;;21.90;30.40;;;;;;497260;239;1120;-38
2022/02/09 11:35:54;;;;;;;;;;;21.90;30.30;;;;;;497339;239;2161;-38
2022/02/09 11:40:16;;;;;;;;;;;21.90;30.30;;;;;;494008;239;1239;-38
2022/02/09 11:42:18;;;;;;;;;;;21.90;30.30;;;;;;497570;239;1306;-38
2022/02/09 11:44:21;;;;;;;;;;;21.90;30.30;;;;;;497621;239;1182;-38
2022/02/09 11:46:32;;;;;;;;;;;21.90;30.30;;;;;;497283;239;2661;-39
2022/02/09 11:48:50;;;;;;;;;;;21.90;30.30;;;;;;497029;239;1835;-38
2022/02/09 11:50:54;;;;;;;;;;;21.90;30.30;;;;;;496319;239;2266;-38
2022/02/09 11:55:45;;;;;;;;;;;21.90;30.20;;;;;;497155;239;2584;-38
2022/02/09 11:57:48;;;;;;;;;;;21.90;30.20;;;;;;496045;239;1883;-39
2022/02/09 12:09:11;;;;;;;;;;;21.90;30.20;;;;;;497453;239;1070;-38
2022/02/09 12:11:09;;;;;;;;;;;21.90;30.20;;;;;;496283;239;2285;-38
2022/02/09 12:13:07;;;;;;;;;;;21.90;30.20;;;;;;497188;239;2209;-39
2022/02/09 12:15:13;;;;;;;;;;;22.00;30.20;;;;;;497455;239;2609;-38
2022/02/09 12:17:27;;;;;;;;;;;21.90;30.10;;;;;;497272;239;1950;-38
2022/02/09 12:19:25;;;;;;;;;;;21.90;30.20;;;;;;496545;239;1550;-38
2022/02/09 12:21:21;;;;;;;;;;;21.90;30.20;;;;;;496880;239;2242;-39
2022/02/09 12:23:29;;;;;;;;;;;22.00;30.20;;;;;;497483;239;2247;-38
2022/02/09 12:25:27;;;;;;;;;;;21.90;30.10;;;;;;497197;239;2121;-38
2022/02/09 12:27:28;;;;;;;;;;;21.90;30.20;;;;;;497764;239;1394;-38
2022/02/09 12:29:32;;;;;;;;;;;21.90;30.10;;;;;;497443;239;1126;-38
2022/02/09 12:31:32;;;;;;;;;;;21.90;30.10;;;;;;497284;239;2210;-38
2022/02/09 12:33:33;;;;;;;;;;;21.90;30.10;;;;;;497599;239;1292;-39
2022/02/09 12:35:34;;;;;;;;;;;21.90;30.10;;;;;;497475;239;2193;-39
2022/02/09 12:37:36;;;;;;;;;;;21.90;30.20;;;;;;497687;239;1191;-38
2022/02/09 12:39:37;;;;;;;;;;;21.90;30.20;;;;;;498344;239;906;-38
2022/02/09 12:41:38;;;;;;;;;;;21.90;30.10;;;;;;497946;236;1178;-38
2022/02/09 12:43:40;;;;;;;;;;;22.00;30.10;;;;;;497267;239;1195;-38
2022/02/09 12:45:41;;;;;;;;;;;21.90;30.10;;;;;;497474;239;1352;-39
2022/02/09 12:47:42;;;;;;;;;;;22.00;30.10;;;;;;498275;239;1185;-38
2022/02/09 12:49:43;;;;;;;;;;;22.00;30.10;;;;;;497635;239;1112;-38
2022/02/09 12:51:45;;;;;;;;;;;21.90;30.00;;;;;;497507;239;1190;-38
2022/02/09 12:53:48;;;;;;;;;;;21.90;30.10;;;;;;497381;239;1181;-38
2022/02/09 12:55:51;;;;;;;;;;;21.90;30.10;;;;;;497552;239;2173;-38
2022/02/09 12:57:52;;;;;;;;;;;21.90;30.10;;;;;;496831;239;2237;-38
2022/02/09 12:59:51;;;;;;;;;;;21.90;30.10;;;;;;497091;239;2159;-38
2022/02/09 13:01:53;;;;;;;;;;;21.90;30.10;;;;;;497426;239;1341;-38
2022/02/09 13:03:54;;;;;;;;;;;21.90;30.10;;;;;;497361;239;1101;-38
2022/02/09 13:05:56;;;;;;;;;;;21.90;30.10;;;;;;497477;239;1220;-38
2022/02/09 13:07:57;;;;;;;;;;;22.00;30.10;;;;;;497314;239;1244;-38
2022/02/09 13:09:58;;;;;;;;;;;21.90;30.00;;;;;;497374;239;1129;-38
2022/02/09 13:11:59;;;;;;;;;;;21.90;30.00;;;;;;497296;239;1340;-38
2022/02/09 13:14:07;;;;;;;;;;;21.90;30.00;;;;;;497908;239;1318;-38
2022/02/09 13:16:12;;;;;;;;;;;21.90;30.00;;;;;;497053;239;2209;-39
2022/02/09 13:18:31;;;;;;;;;;;21.90;30.00;;;;;;497014;239;2251;-39
2022/02/09 13:25:35;;;;;;;;;;;21.90;30.00;;;;;;497288;239;1546;-38
2022/02/09 14:03:04;;;;;;;;;;;21.90;30.00;;;;;;497747;239;1220;-38
2022/02/09 14:12:22;;;;;;;;;;;22.00;30.00;;;;;;497608;239;1027;-38
2022/02/09 14:14:50;;;;;;;;;;;22.00;30.00;;;;;;497042;239;2274;-38
2022/02/09 14:16:33;;;;;;;;;;;22.00;30.00;;;;;;496120;239;2180;-39
2022/02/09 14:18:50;;;;;;;;;;;22.00;30.00;;;;;;496987;239;2254;-39
2022/02/09 14:35:28;;;;;;;;;;;22.00;30.00;;;;;;497336;239;1275;-39
2022/02/09 14:49:47;;;;;;;;;;;22.00;30.10;;;;;;497627;239;1053;-38
2022/02/09 14:53:30;;;;;;;;;;;21.90;30.00;;;;;;497815;239;1250;-39
2022/02/09 14:55:44;;;;;;;;;;;22.00;30.00;;;;;;497297;239;2138;-39
2022/02/09 14:57:39;;;;;;;;;;;22.00;30.00;;;;;;496793;239;2184;-38
2022/02/09 14:59:48;;;;;;;;;;;21.90;30.00;;;;;;497089;239;2040;-38
2022/02/09 15:01:53;;;;;;;;;;;22.00;30.00;;;;;;497408;239;2044;-38
2022/02/09 15:04:04;;;;;;;;;;;22.00;30.00;;;;;;497202;239;2241;-38
2022/02/09 15:06:11;;;;;;;;;;;22.00;30.00;;;;;;496704;239;2400;-38
2022/02/09 15:08:09;;;;;;;;;;;22.00;30.00;;;;;;496657;239;1768;-39
2022/02/09 15:10:09;;;;;;;;;;;22.00;30.00;;;;;;496980;239;2110;-38
2022/02/09 15:12:15;;;;;;;;;;;21.90;30.00;;;;;;497151;239;2230;-39
2022/02/09 15:14:13;;;;;;;;;;;22.00;30.00;;;;;;497122;239;1743;-38
2022/02/09 15:16:19;;;;;;;;;;;22.00;30.00;;;;;;498014;239;2216;-39
2022/02/09 15:18:35;;;;;;;;;;;22.00;30.00;;;;;;497912;239;1743;-38
2022/02/09 15:20:49;;;;;;;;;;;22.00;30.00;;;;;;496563;239;1988;-38
2022/02/09 15:22:46;;;;;;;;;;;21.90;30.00;;;;;;497190;239;2106;-38
2022/02/09 15:24:47;;;;;;;;;;;21.90;30.00;;;;;;497511;239;2254;-39
2022/02/09 15:26:50;;;;;;;;;;;21.90;30.00;;;;;;497547;237;2135;-38
2022/02/09 15:28:50;;;;;;;;;;;22.00;30.10;;;;;;497332;239;2338;-39
2022/02/09 15:31:02;;;;;;;;;;;22.00;30.10;;;;;;497580;239;2417;-38
2022/02/09 15:32:54;;;;;;;;;;;21.90;30.10;;;;;;496816;239;2109;-38
2022/02/09 15:34:57;;;;;;;;;;;21.90;30.10;;;;;;497406;239;1537;-39
2022/02/09 15:37:03;;;;;;;;;;;21.90;30.10;;;;;;497494;239;2209;-38
2022/02/09 15:39:00;;;;;;;;;;;21.90;30.10;;;;;;497430;239;1830;-38
2022/02/09 15:41:12;;;;;;;;;;;21.90;30.10;;;;;;497634;239;1222;-39
2022/02/09 15:43:19;;;;;;;;;;;21.90;30.10;;;;;;497065;239;2236;-38
2022/02/09 15:57:06;;;;;;;;;;;21.90;30.20;;;;;;497734;238;2139;-38
2022/02/09 16:06:08;;;;;;;;;;;21.80;30.20;;;;;;497988;239;1204;-39
2022/02/09 16:08:29;;;;;;;;;;;21.90;30.20;;;;;;497343;239;2164;-38
2022/02/09 16:10:35;;;;;;;;;;;21.90;30.20;;;;;;496836;239;2081;-38
2022/02/09 16:17:32;;;;;;;;;;;22.00;30.10;;;;;;497823;239;2130;-38
2022/02/09 16:24:07;;;;;;;;;;;21.90;30.10;;;;;;487116;239;1387;-38
2022/02/09 16:33:14;;;;;;;;;;;21.90;30.30;;;;;;497681;239;1140;-38
2022/02/09 16:38:17;;;;;;;;;;;21.90;30.30;;;;;;481810;246;2177;-38
2022/02/09 16:45:09;;;;;;;;;;;22.00;30.20;;;;;;481691;246;1184;-38
2022/02/09 16:47:26;;;;;;;;;;;22.00;30.20;;;;;;481768;247;1196;-38
2022/02/09 16:49:23;;;;;;;;;;;22.00;30.10;;;;;;480789;247;1757;-38
2022/02/09 16:51:17;;;;;;;;;;;22.10;30.20;;;;;;495746;239;1695;-38
2022/02/09 16:53:33;;;;;;;;;;;22.00;30.20;;;;;;497705;239;1613;-38
2022/02/09 16:55:51;;;;;;;;;;;22.00;30.20;;;;;;497245;239;2391;-38
2022/02/09 17:18:49;;;;;;;;;;;21.90;30.40;;;;;;497351;239;1270;-38
2022/02/09 17:20:49;;;;;;;;;;;21.90;30.40;;;;;;497727;239;1267;-38
2022/02/09 17:22:50;;;;;;;;;;;22.00;30.50;;;;;;497843;239;1750;-38
2022/02/09 17:24:52;;;;;;;;;;;21.90;30.40;;;;;;497851;239;1280;-38
2022/02/09 17:26:54;;;;;;;;;;;21.90;30.40;;;;;;497998;239;1257;-38
2022/02/09 17:29:00;;;;;;;;;;;21.90;30.50;;;;;;498134;239;1360;-38
2022/02/09 17:31:12;;;;;;;;;;;21.90;30.50;;;;;;497728;239;2074;-38
2022/02/09 17:33:12;;;;;;;;;;;21.90;30.50;;;;;;497521;239;2214;-38
2022/02/09 17:35:15;;;;;;;;;;;21.90;30.60;;;;;;497684;239;2605;-38
2022/02/09 17:53:32;;;;;;;;;;;21.80;30.70;;;;;;498038;239;1060;-38
2022/02/09 17:58:09;;;;;;;;;;;21.90;30.60;;;;;;487180;239;2181;-38
2022/02/09 18:00:11;;;;;;;;;;;21.90;30.60;;;;;;498193;239;1797;-38
2022/02/09 18:02:10;;;;;;;;;;;21.90;30.60;;;;;;497876;239;1942;-38
2022/02/09 18:04:11;;;;;;;;;;;21.90;30.60;;;;;;498538;239;1057;-38
2022/02/09 18:06:18;;;;;;;;;;;21.90;30.60;;;;;;498313;239;1172;-38
2022/02/09 18:08:22;;;;;;;;;;;22.00;30.70;;;;;;498089;239;1874;-38
2022/02/09 18:10:32;;;;;;;;;;;21.90;30.60;;;;;;498420;239;2227;-38
2022/02/09 18:12:47;;;;;;;;;;;21.90;30.70;;;;;;497757;239;1918;-38
2022/02/09 18:15:03;;;;;;;;;;;21.90;30.60;;;;;;497075;239;2031;-38
2022/02/09 18:30:55;;;;;;;;;;;21.80;30.70;;;;;;495643;239;1211;-38
2022/02/09 18:33:08;;;;;;;;;;;21.90;30.80;;;;;;497716;239;1810;-38
2022/02/09 18:44:39;;;;;;;;;;;21.80;30.90;;;;;;498190;239;1048;-38
2022/02/09 18:46:52;;;;;;;;;;;21.70;30.90;;;;;;497838;236;2239;-38
2022/02/09 18:49:07;;;;;;;;;;;21.80;31.00;;;;;;497286;239;1255;-38
2022/02/09 19:03:00;;;;;;;;;;;21.80;30.90;;;;;;487461;239;1247;-38
2022/02/09 19:05:13;;;;;;;;;;;21.80;30.90;;;;;;498558;239;2307;-38
2022/02/09 19:07:17;;;;;;;;;;;21.80;30.90;;;;;;498086;239;1326;-38
2022/02/09 19:14:14;;;;;;;;;;;21.80;31.00;;;;;;498162;239;1142;-39
2022/02/09 19:19:04;;;;;;;;;;;21.70;31.00;;;;;;498559;239;1127;-38
2022/02/09 19:26:11;;;;;;;;;;;21.70;30.90;;;;;;497391;239;2158;-38
2022/02/09 19:30:08;;;;;;;;;;;21.80;31.00;;;;;;498572;239;992;-39
2022/02/09 19:46:43;;;;;;;;;;;21.70;31.00;;;;;;497933;239;1754;-39
2022/02/09 19:48:37;;;;;;;;;;;21.70;30.90;;;;;;497544;239;1371;-39
2022/02/09 19:50:53;;;;;;;;;;;21.70;31.00;;;;;;498069;239;2077;-39
2022/02/09 19:52:57;;;;;;;;;;;21.80;31.00;;;;;;497815;239;1414;-39
2022/02/09 19:55:07;;;;;;;;;;;21.80;31.00;;;;;;498414;239;1345;-39
2022/02/09 19:57:03;;;;;;;;;;;21.80;31.00;;;;;;497936;239;2385;-39
2022/02/09 19:59:09;;;;;;;;;;;21.80;31.00;;;;;;498106;239;1367;-39
2022/02/09 20:01:04;;;;;;;;;;;21.80;31.00;;;;;;497770;239;2294;-39
2022/02/09 20:03:07;;;;;;;;;;;21.70;31.00;;;;;;498369;239;1555;-39
2022/02/09 20:05:07;;;;;;;;;;;21.80;31.00;;;;;;498254;239;1741;-39
2022/02/09 20:07:09;;;;;;;;;;;21.70;31.00;;;;;;498144;239;1601;-39